createdAt,value
2018-04-22T00:02:20.076Z,18.57
2018-04-22T00:04:48.548Z,18.75
2018-04-22T00:07:16.918Z,18.55
2018-04-22T00:09:45.324Z,18.93
2018-04-22T00:12:14.085Z,18.99
2018-04-22T00:14:42.454Z,18.82
2018-04-22T00:17:10.838Z,18.61
2018-04-22T00:19:39.211Z,18.78
2018-04-22T00:22:07.582Z,18.62
2018-04-22T00:24:35.977Z,18.67
2018-04-22T00:27:04.363Z,18.85
2018-04-22T00:29:32.718Z,18.75
2018-04-22T00:32:01.111Z,18.55
2018-04-22T00:34:29.473Z,18.71
2018-04-22T00:36:57.863Z,18.83
2018-04-22T00:39:26.251Z,18.56
2018-04-22T00:41:54.622Z,18.67
2018-04-22T00:44:22.994Z,18.29
2018-04-22T00:46:51.359Z,18.30
2018-04-22T00:49:19.718Z,18.37
2018-04-22T00:51:48.087Z,18.43
2018-04-22T00:54:22.246Z,18.30
2018-04-22T00:56:50.626Z,17.98
2018-04-22T00:59:18.976Z,18.14
2018-04-22T01:01:47.389Z,18.19
2018-04-22T01:04:15.761Z,18.38
2018-04-22T01:06:44.133Z,18.41
2018-04-22T01:09:12.487Z,18.35
2018-04-22T01:11:40.878Z,18.45
2018-04-22T01:14:09.247Z,18.57
2018-04-22T01:16:37.656Z,18.23
2018-04-22T01:19:06.006Z,18.35
2018-04-22T01:21:34.427Z,18.40
2018-04-22T01:24:06.264Z,18.39
2018-04-22T01:26:34.631Z,18.22
2018-04-22T01:29:03.034Z,18.17
2018-04-22T01:31:31.384Z,18.14
2018-04-22T01:34:00.265Z,18.14
2018-04-22T01:36:29.099Z,18.13
2018-04-22T01:38:57.451Z,18.10
2018-04-22T01:41:25.861Z,18.06
2018-04-22T01:43:54.211Z,18.08
2018-04-22T01:46:22.551Z,17.84
2018-04-22T01:48:50.995Z,17.65
2018-04-22T01:51:19.374Z,17.83
2018-04-22T01:53:47.741Z,17.88
2018-04-22T01:56:16.106Z,17.59
2018-04-22T01:58:44.458Z,17.53
2018-04-22T02:01:13.298Z,17.63
2018-04-22T02:03:41.646Z,17.61
2018-04-22T02:06:10.024Z,17.77
2018-04-22T02:08:38.409Z,17.66
2018-04-22T02:11:06.774Z,17.71
2018-04-22T02:13:35.133Z,17.73
2018-04-22T02:16:03.888Z,17.64
2018-04-22T02:18:32.266Z,17.60
2018-04-22T02:21:00.635Z,17.66
2018-04-22T02:23:29.035Z,17.75
2018-04-22T02:25:57.403Z,17.72
2018-04-22T02:28:25.763Z,17.80
2018-04-22T02:30:54.131Z,17.76
2018-04-22T02:33:22.533Z,17.62
2018-04-22T02:35:50.866Z,17.42
2018-04-22T02:38:19.243Z,17.59
2018-04-22T02:40:47.687Z,17.50
2018-04-22T02:43:16.159Z,17.54
2018-04-22T02:45:44.521Z,17.33
2018-04-22T02:48:12.872Z,17.27
2018-04-22T02:50:41.226Z,17.25
2018-04-22T02:53:09.977Z,17.30
2018-04-22T02:55:38.346Z,16.99
2018-04-22T02:58:06.701Z,17.30
2018-04-22T03:00:35.064Z,17.32
2018-04-22T03:03:03.482Z,17.28
2018-04-22T03:05:31.859Z,17.11
2018-04-22T03:08:00.238Z,17.17
2018-04-22T03:10:28.588Z,16.96
2018-04-22T03:12:56.979Z,16.97
2018-04-22T03:15:25.390Z,17.09
2018-04-22T03:17:53.749Z,16.81
2018-04-22T03:20:22.123Z,16.96
2018-04-22T03:22:50.501Z,17.03
2018-04-22T03:25:18.967Z,17.00
2018-04-22T03:27:47.333Z,16.86
2018-04-22T03:30:15.759Z,16.87
2018-04-22T03:32:44.134Z,17.06
2018-04-22T03:35:12.530Z,16.90
2018-04-22T03:37:40.861Z,16.78
2018-04-22T03:40:09.272Z,16.96
2018-04-22T03:42:37.644Z,17.02
2018-04-22T03:45:06.012Z,17.06
2018-04-22T03:47:34.488Z,17.14
2018-04-22T03:50:02.855Z,17.23
2018-04-22T03:52:31.227Z,17.22
2018-04-22T03:54:59.636Z,17.31
2018-04-22T03:57:28.015Z,17.19
2018-04-22T03:59:56.366Z,17.08
2018-04-22T04:02:24.721Z,17.14
2018-04-22T04:04:53.479Z,17.19
2018-04-22T04:07:21.831Z,17.23
2018-04-22T04:09:50.202Z,17.07
2018-04-22T04:12:18.554Z,17.23
2018-04-22T04:14:47.391Z,17.10
2018-04-22T04:17:15.760Z,16.94
2018-04-22T04:20:01.962Z,17.11
2018-04-22T04:22:42.026Z,17.13
2018-04-22T04:28:21.271Z,17.06
2018-04-22T04:30:49.640Z,17.41
2018-04-22T04:33:18.031Z,17.94
2018-04-22T04:35:46.388Z,18.93
2018-04-22T04:38:14.739Z,20.03
2018-04-22T04:40:43.502Z,20.44
2018-04-22T04:43:11.855Z,20.95
2018-04-22T04:45:40.233Z,21.74
2018-04-22T04:48:08.582Z,22.53
2018-04-22T04:50:36.938Z,22.48
2018-04-22T04:53:05.781Z,22.99
2018-04-22T04:55:34.144Z,23.59
2018-04-22T04:58:02.548Z,24.35
2018-04-22T05:00:30.905Z,24.62
2018-04-22T05:02:59.254Z,25.52
2018-04-22T05:05:28.031Z,26.07
2018-04-22T05:07:56.780Z,26.91
2018-04-22T05:10:25.258Z,27.40
2018-04-22T05:12:53.614Z,27.15
2018-04-22T05:15:21.970Z,26.49
2018-04-22T05:17:50.398Z,26.66
2018-04-22T05:20:18.766Z,27.34
2018-04-22T05:22:47.178Z,26.53
2018-04-22T05:25:15.940Z,26.81
2018-04-22T05:27:44.292Z,26.97
2018-04-22T05:30:12.642Z,25.96
2018-04-22T05:32:41.669Z,25.79
2018-04-22T05:35:10.043Z,26.19
2018-04-22T05:37:38.407Z,26.44
2018-04-22T05:40:06.831Z,27.93
2018-04-22T05:42:35.196Z,28.70
2018-04-22T05:45:03.545Z,29.96
2018-04-22T05:47:31.911Z,30.87
2018-04-22T05:50:00.675Z,30.34
2018-04-22T05:52:29.134Z,29.89
2018-04-22T05:54:57.528Z,30.36
2018-04-22T05:57:25.867Z,32.28
2018-04-22T05:59:54.243Z,32.76
2018-04-22T06:02:22.590Z,33.20
2018-04-22T06:04:51.335Z,32.59
2018-04-22T06:07:20.614Z,32.47
2018-04-22T06:09:48.973Z,32.88
2018-04-22T06:12:17.346Z,33.27
2018-04-22T06:14:46.102Z,33.45
2018-04-22T06:17:14.729Z,33.30
2018-04-22T06:19:43.100Z,33.49
2018-04-22T06:22:11.522Z,33.92
2018-04-22T06:24:39.881Z,33.33
2018-04-22T06:27:08.274Z,33.73
2018-04-22T06:29:36.634Z,34.63
2018-04-22T06:32:05.008Z,35.37
2018-04-22T06:34:33.362Z,35.72
2018-04-22T06:37:01.782Z,35.06
2018-04-22T06:39:30.148Z,35.01
2018-04-22T06:41:58.507Z,35.73
2018-04-22T06:44:26.927Z,36.39
2018-04-22T06:46:55.286Z,36.74
2018-04-22T06:49:23.661Z,36.93
2018-04-22T06:51:52.036Z,37.59
2018-04-22T06:54:20.446Z,38.23
2018-04-22T06:56:48.822Z,37.78
2018-04-22T06:59:17.179Z,37.69
2018-04-22T07:01:45.602Z,38.78
2018-04-22T07:04:14.074Z,39.50
2018-04-22T07:06:42.492Z,39.40
2018-04-22T07:09:11.240Z,39.66
2018-04-22T07:11:39.738Z,38.87
2018-04-22T07:14:08.196Z,38.06
2018-04-22T07:16:36.551Z,37.25
2018-04-22T07:19:04.895Z,38.48
2018-04-22T07:21:33.646Z,37.89
2018-04-22T07:24:02.040Z,38.94
2018-04-22T07:26:30.389Z,39.72
2018-04-22T07:28:58.749Z,39.38
2018-04-22T07:31:27.182Z,39.56
2018-04-22T07:33:55.541Z,40.31
2018-04-22T07:36:23.889Z,40.86
2018-04-22T07:38:52.254Z,41.06
2018-04-22T07:41:20.605Z,41.16
2018-04-22T07:43:49.339Z,40.95
2018-04-22T07:46:17.697Z,39.48
2018-04-22T07:48:46.046Z,39.66
2018-04-22T07:51:14.423Z,39.61
2018-04-22T07:53:42.767Z,40.02
2018-04-22T07:56:11.126Z,40.25
2018-04-22T07:58:39.474Z,40.30
2018-04-22T08:01:08.210Z,41.78
2018-04-22T08:03:36.586Z,40.12
2018-04-22T08:06:04.965Z,39.95
2018-04-22T08:08:33.339Z,40.37
2018-04-22T08:11:01.731Z,41.40
2018-04-22T08:13:30.083Z,42.49
2018-04-22T08:15:58.442Z,42.29
2018-04-22T08:18:26.806Z,42.29
2018-04-22T08:20:55.642Z,43.74
2018-04-22T08:23:23.986Z,44.14
2018-04-22T08:25:52.354Z,44.94
2018-04-22T08:28:21.170Z,45.59
2018-04-22T08:30:49.465Z,45.34
2018-04-22T08:33:17.886Z,44.87
2018-04-22T08:35:46.206Z,44.23
2018-04-22T08:38:14.585Z,44.69
2018-04-22T08:40:42.982Z,44.88
2018-04-22T08:43:11.339Z,45.71
2018-04-22T08:45:39.693Z,46.71
2018-04-22T08:48:08.113Z,46.56
2018-04-22T08:50:36.511Z,46.53
2018-04-22T08:53:04.979Z,46.89
2018-04-22T08:55:33.374Z,45.55
2018-04-22T08:58:01.753Z,45.32
2018-04-22T09:00:30.170Z,45.65
2018-04-22T09:02:58.909Z,45.48
2018-04-22T09:05:27.283Z,45.66
2018-04-22T09:07:55.632Z,45.04
2018-04-22T09:10:24.035Z,45.15
2018-04-22T09:12:52.410Z,46.12
2018-04-22T09:15:20.779Z,44.93
2018-04-22T09:17:49.171Z,46.15
2018-04-22T09:20:17.582Z,46.35
2018-04-22T09:22:46.450Z,46.85
2018-04-22T09:25:14.817Z,46.80
2018-04-22T09:27:43.206Z,45.18
2018-04-22T09:30:11.582Z,46.18
2018-04-22T09:32:39.926Z,46.25
2018-04-22T09:35:08.313Z,45.24
2018-04-22T09:37:36.736Z,46.05
2018-04-22T09:40:05.099Z,46.30
2018-04-22T09:42:33.476Z,46.89
2018-04-22T09:45:01.842Z,46.07
2018-04-22T09:47:30.241Z,44.95
2018-04-22T09:49:58.663Z,44.54
2018-04-22T09:52:27.497Z,44.20
2018-04-22T09:54:55.986Z,43.15
2018-04-22T09:57:24.368Z,44.58
2018-04-22T09:59:52.742Z,44.91
2018-04-22T10:02:38.794Z,44.56
2018-04-22T10:05:08.972Z,45.32
2018-04-22T10:07:37.448Z,45.37
2018-04-22T10:10:05.811Z,45.83
2018-04-22T10:12:34.217Z,45.62
2018-04-22T10:15:03.090Z,44.82
2018-04-22T10:17:31.467Z,45.24
2018-04-22T10:19:59.837Z,46.02
2018-04-22T10:22:28.229Z,45.25
2018-04-22T10:24:56.625Z,45.04
2018-04-22T10:27:25.098Z,44.27
2018-04-22T10:29:53.474Z,44.49
2018-04-22T10:32:21.905Z,43.84
2018-04-22T10:34:50.607Z,42.86
2018-04-22T10:37:18.961Z,43.38
2018-04-22T10:39:47.342Z,44.13
2018-04-22T10:42:15.708Z,44.64
2018-04-22T10:44:44.155Z,43.63
2018-04-22T10:47:12.527Z,43.00
2018-04-22T10:49:40.891Z,43.15
2018-04-22T10:52:09.254Z,42.48
2018-04-22T10:54:37.599Z,42.31
2018-04-22T10:57:05.964Z,42.84
2018-04-22T10:59:34.314Z,43.03
2018-04-22T11:02:02.733Z,42.87
2018-04-22T11:04:31.064Z,42.68
2018-04-22T11:06:59.464Z,40.99
2018-04-22T11:09:27.831Z,39.69
2018-04-22T11:11:56.187Z,39.44
2018-04-22T11:14:25.405Z,37.72
2018-04-22T11:16:53.785Z,35.93
2018-04-22T11:19:22.171Z,34.44
2018-04-22T11:21:50.551Z,35.12
2018-04-22T11:24:18.925Z,34.77
2018-04-22T11:26:47.318Z,34.70
2018-04-22T11:29:15.683Z,34.38
2018-04-22T11:31:44.043Z,33.82
2018-04-22T11:34:12.451Z,33.90
2018-04-22T11:36:40.821Z,33.38
2018-04-22T11:39:09.170Z,32.74
2018-04-22T11:41:37.534Z,32.04
2018-04-22T11:44:06.282Z,31.08
2018-04-22T11:46:34.666Z,31.31
2018-04-22T11:49:03.090Z,30.95
2018-04-22T11:51:31.451Z,31.31
2018-04-22T11:54:00.302Z,31.26
2018-04-22T11:56:28.674Z,30.97
2018-04-22T11:58:57.056Z,30.97
2018-04-22T12:01:25.403Z,30.65
2018-04-22T12:03:53.757Z,30.76
2018-04-22T12:06:22.518Z,30.65
2018-04-22T12:08:50.895Z,30.62
2018-04-22T12:11:19.267Z,30.75
2018-04-22T12:13:47.636Z,30.80
2018-04-22T12:16:15.980Z,30.84
2018-04-22T12:18:44.341Z,31.17
2018-04-22T12:21:13.093Z,31.25
2018-04-22T12:23:41.565Z,30.93
2018-04-22T12:26:09.918Z,31.24
2018-04-22T12:28:38.306Z,31.14
2018-04-22T12:31:06.699Z,30.89
2018-04-22T12:33:35.058Z,30.66
2018-04-22T12:36:03.458Z,30.82
2018-04-22T12:38:31.838Z,30.96
2018-04-22T12:41:00.189Z,31.19
2018-04-22T12:43:28.543Z,30.75
2018-04-22T12:45:57.281Z,30.80
2018-04-22T12:48:25.655Z,30.90
2018-04-22T12:50:54.014Z,30.94
2018-04-22T12:53:22.413Z,30.98
2018-04-22T12:55:50.772Z,30.68
2018-04-22T12:58:19.118Z,31.21
2018-04-22T13:00:47.886Z,30.99
2018-04-22T13:03:16.350Z,30.88
2018-04-22T13:05:44.701Z,30.80
2018-04-22T13:08:13.058Z,31.08
2018-04-22T13:10:41.450Z,31.16
2018-04-22T13:13:09.818Z,30.66
2018-04-22T13:15:38.191Z,30.97
2018-04-22T13:18:06.545Z,30.89
2018-04-22T13:20:35.094Z,31.09
2018-04-22T13:23:03.445Z,30.72
2018-04-22T13:25:31.826Z,30.62
2018-04-22T13:28:00.173Z,30.73
2018-04-22T13:30:28.913Z,30.30
2018-04-22T13:32:57.270Z,30.13
2018-04-22T13:35:25.630Z,30.52
2018-04-22T13:37:54.390Z,30.54
2018-04-22T13:40:22.842Z,30.87
2018-04-22T13:42:51.182Z,30.87
2018-04-22T13:45:19.546Z,31.23
2018-04-22T13:47:48.391Z,31.13
2018-04-22T13:50:16.869Z,31.40
2018-04-22T13:52:45.237Z,31.35
2018-04-22T13:55:13.627Z,31.60
2018-04-22T13:57:41.989Z,31.20
2018-04-22T14:00:10.386Z,31.20
2018-04-22T14:02:38.765Z,31.63
2018-04-22T14:05:07.112Z,31.88
2018-04-22T14:07:35.524Z,31.87
2018-04-22T14:10:03.889Z,31.86
2018-04-22T14:12:32.266Z,31.68
2018-04-22T14:15:00.650Z,31.88
2018-04-22T14:17:29.008Z,31.77
2018-04-22T14:19:57.373Z,31.23
2018-04-22T14:22:25.729Z,31.13
2018-04-22T14:24:54.483Z,30.77
2018-04-22T14:27:22.860Z,30.89
2018-04-22T14:29:51.244Z,30.86
2018-04-22T14:32:19.591Z,31.40
2018-04-22T14:34:47.944Z,31.74
2018-04-22T14:37:16.685Z,31.73
2018-04-22T14:39:45.054Z,31.48
2018-04-22T14:42:13.399Z,31.67
2018-04-22T14:44:59.554Z,31.96
2018-04-22T14:47:27.906Z,31.83
2018-04-22T14:49:56.269Z,32.14
2018-04-22T14:52:24.661Z,31.88
2018-04-22T14:54:53.106Z,31.85
2018-04-22T14:57:21.529Z,31.49
2018-04-22T14:59:49.911Z,31.25
2018-04-22T15:02:18.263Z,30.95
2018-04-22T15:04:46.673Z,30.42
2018-04-22T15:07:15.022Z,30.58
2018-04-22T15:09:43.389Z,30.71
2018-04-22T15:12:11.805Z,30.79
2018-04-22T15:14:40.180Z,30.94
2018-04-22T15:17:08.549Z,31.25
2018-04-22T15:19:36.915Z,30.55
2018-04-22T15:22:05.278Z,30.47
2018-04-22T15:24:33.694Z,30.65
2018-04-22T15:27:02.069Z,30.49
2018-04-22T15:31:56.726Z,30.70
2018-04-22T15:34:25.585Z,30.85
2018-04-22T15:36:53.932Z,30.63
2018-04-22T15:39:22.283Z,30.69
2018-04-22T15:41:51.029Z,30.27
2018-04-22T15:44:19.381Z,30.76
2018-04-22T15:46:47.751Z,30.71
2018-04-22T15:49:16.093Z,30.87
2018-04-22T15:51:44.947Z,30.49
2018-04-22T15:54:13.357Z,29.97
2018-04-22T15:56:41.720Z,29.27
2018-04-22T15:59:10.090Z,29.33
2018-04-22T16:01:38.474Z,29.03
2018-04-22T16:04:06.836Z,29.26
2018-04-22T16:06:35.185Z,29.12
2018-04-22T16:09:03.538Z,28.98
2018-04-22T16:11:31.904Z,29.07
2018-04-22T16:14:00.666Z,28.97
2018-04-22T16:16:29.038Z,29.17
2018-04-22T16:18:57.406Z,28.97
2018-04-22T16:21:25.751Z,29.44
2018-04-22T16:23:54.183Z,29.23
2018-04-22T16:26:22.552Z,29.07
2018-04-22T16:28:50.927Z,28.74
2018-04-22T16:31:19.297Z,29.12
2018-04-22T16:33:53.638Z,29.34
2018-04-22T16:36:22.117Z,29.49
2018-04-22T16:38:50.469Z,29.27
2018-04-22T16:41:18.809Z,29.28
2018-04-22T16:43:47.566Z,29.33
2018-04-22T16:46:15.906Z,29.20
2018-04-22T16:48:44.282Z,29.07
2018-04-22T16:51:12.634Z,28.67
2018-04-22T16:53:41.069Z,28.85
2018-04-22T16:56:09.425Z,29.02
2018-04-22T16:58:37.826Z,28.77
2018-04-22T17:01:06.199Z,29.12
2018-04-22T17:03:34.538Z,29.14
2018-04-22T17:06:03.280Z,29.33
2018-04-22T17:08:31.649Z,29.00
2018-04-22T17:11:00.002Z,29.00
2018-04-22T17:13:28.361Z,29.20
2018-04-22T17:15:57.191Z,28.88
2018-04-22T17:18:25.538Z,28.69
2018-04-22T17:20:53.946Z,28.93
2018-04-22T17:23:22.311Z,28.98
2018-04-22T17:25:50.714Z,28.77
2018-04-22T17:28:19.198Z,28.84
2018-04-22T17:30:47.565Z,28.65
2018-04-22T17:33:15.922Z,28.61
2018-04-22T17:35:45.090Z,28.66
2018-04-22T17:38:14.000Z,28.53
2018-04-22T17:40:42.410Z,28.38
2018-04-22T17:43:10.767Z,27.91
2018-04-22T17:45:39.181Z,27.63
2018-04-22T17:48:07.658Z,27.62
2018-04-22T17:50:36.039Z,27.64
2018-04-22T17:53:04.410Z,27.58
2018-04-22T17:55:32.763Z,27.44
2018-04-22T17:58:01.147Z,27.26
2018-04-22T18:00:29.542Z,27.24
2018-04-22T18:02:58.221Z,27.39
2018-04-22T18:05:26.590Z,27.21
2018-04-22T18:07:54.943Z,27.07
2018-04-22T18:10:23.861Z,26.88
2018-04-22T18:12:52.214Z,27.08
2018-04-22T18:15:21.057Z,26.93
2018-04-22T18:17:49.425Z,26.43
2018-04-22T18:20:17.778Z,26.20
2018-04-22T18:22:46.140Z,26.56
2018-04-22T18:25:14.490Z,26.34
2018-04-22T18:27:42.975Z,26.05
2018-04-22T18:30:11.344Z,25.91
2018-04-22T18:32:39.698Z,26.10
2018-04-22T18:35:08.039Z,25.80
2018-04-22T18:37:36.790Z,25.63
2018-04-22T18:40:05.249Z,26.04
2018-04-22T18:42:33.743Z,26.02
2018-04-22T18:45:02.095Z,26.05
2018-04-22T18:47:30.464Z,25.70
2018-04-22T18:49:58.866Z,25.76
2018-04-22T18:52:27.226Z,25.82
2018-04-22T18:54:55.602Z,25.81
2018-04-22T18:57:23.996Z,25.80
2018-04-22T18:59:52.390Z,25.61
2018-04-22T19:02:20.768Z,25.35
2018-04-22T19:04:49.122Z,25.35
2018-04-22T19:07:17.522Z,25.53
2018-04-22T19:09:45.878Z,25.26
2018-04-22T19:12:14.232Z,25.19
2018-04-22T19:14:42.984Z,25.32
2018-04-22T19:17:11.356Z,25.25
2018-04-22T19:19:39.830Z,24.89
2018-04-22T19:22:08.213Z,25.06
2018-04-22T19:24:36.567Z,25.12
2018-04-22T19:27:04.925Z,25.10
2018-04-22T19:29:33.275Z,24.81
2018-04-22T19:32:01.642Z,24.95
2018-04-22T19:34:29.990Z,25.00
2018-04-22T19:36:58.374Z,25.13
2018-04-22T19:39:26.742Z,25.15
2018-04-22T19:41:55.125Z,25.05
2018-04-22T19:44:23.512Z,25.11
2018-04-22T19:46:51.896Z,25.20
2018-04-22T19:49:20.315Z,25.09
2018-04-22T19:51:49.150Z,25.16
2018-04-22T19:54:17.507Z,25.17
2018-04-22T19:56:45.888Z,25.19
2018-04-22T19:59:14.230Z,24.99
2018-04-22T20:01:42.982Z,25.07
2018-04-22T20:04:11.360Z,24.90
2018-04-22T20:06:39.718Z,24.87
2018-04-22T20:09:08.088Z,24.89
2018-04-22T20:11:36.491Z,25.02
2018-04-22T20:14:04.875Z,24.86
2018-04-22T20:16:33.244Z,24.98
2018-04-22T20:19:01.647Z,25.06
2018-04-22T20:21:30.016Z,24.86
2018-04-22T20:23:58.378Z,25.01
2018-04-22T20:26:26.739Z,24.96
2018-04-22T20:28:55.098Z,24.82
2018-04-22T20:31:23.840Z,24.71
2018-04-22T20:33:52.322Z,24.66
2018-04-22T20:36:20.669Z,24.76
2018-04-22T20:38:49.065Z,24.66
2018-04-22T20:41:17.442Z,24.88
2018-04-22T20:43:45.814Z,24.69
2018-04-22T20:46:14.193Z,24.50
2018-04-22T20:48:42.588Z,24.65
2018-04-22T20:51:10.965Z,24.85
2018-04-22T20:53:39.389Z,24.54
2018-04-22T20:56:07.829Z,24.38
2018-04-22T20:58:36.206Z,24.70
2018-04-22T21:01:04.553Z,24.76
2018-04-22T21:03:32.912Z,24.81
2018-04-22T21:06:01.683Z,24.61
2018-04-22T21:08:30.543Z,24.57
2018-04-22T21:10:59.018Z,24.63
2018-04-22T21:13:27.474Z,24.67
2018-04-22T21:15:55.877Z,24.64
2018-04-22T21:18:24.250Z,24.14
2018-04-22T21:20:52.598Z,24.07
2018-04-22T21:23:21.035Z,24.34
2018-04-22T21:25:49.389Z,25.02
2018-04-22T21:28:17.766Z,25.07
2018-04-22T21:30:46.125Z,25.64
2018-04-22T21:33:14.535Z,25.79
2018-04-22T21:35:42.886Z,26.15
2018-04-22T21:38:11.269Z,26.28
2018-04-22T21:40:39.675Z,26.25
2018-04-22T21:43:08.021Z,26.20
2018-04-22T21:45:36.363Z,26.13
2018-04-22T21:48:04.807Z,26.30
2018-04-22T21:50:33.189Z,26.36
2018-04-22T21:53:01.569Z,26.31
2018-04-22T21:55:29.915Z,26.34
2018-04-22T21:57:58.339Z,26.16
2018-04-22T22:00:26.709Z,26.08
2018-04-22T22:02:55.088Z,25.96
2018-04-22T22:05:23.566Z,25.78
2018-04-22T22:07:51.933Z,25.92
2018-04-22T22:10:20.340Z,25.79
2018-04-22T22:12:48.729Z,25.88
2018-04-22T22:15:17.070Z,25.54
2018-04-22T22:17:45.456Z,25.30
2018-04-22T22:20:13.802Z,25.27
2018-04-22T22:22:42.154Z,25.44
2018-04-22T22:25:10.906Z,25.26
2018-04-22T22:27:39.268Z,25.41
2018-04-22T22:30:07.638Z,25.47
2018-04-22T22:32:36.043Z,25.52
2018-04-22T22:35:04.402Z,25.37
2018-04-22T22:37:32.795Z,25.58
2018-04-22T22:40:01.153Z,25.63
2018-04-22T22:42:29.557Z,25.45
2018-04-22T22:44:57.902Z,25.28
2018-04-22T22:47:26.255Z,25.20
2018-04-22T22:49:55.044Z,25.05
2018-04-22T22:52:23.877Z,24.96
2018-04-22T22:54:52.243Z,25.01
2018-04-22T22:57:20.649Z,25.48
2018-04-22T22:59:49.014Z,25.61
2018-04-22T23:02:17.398Z,25.39
2018-04-22T23:04:45.750Z,25.25
2018-04-22T23:07:14.157Z,25.33
2018-04-22T23:09:42.523Z,25.13
2018-04-22T23:12:10.874Z,25.21
2018-04-22T23:14:39.625Z,25.00
2018-04-22T23:17:07.974Z,25.19
2018-04-22T23:19:36.349Z,25.04
2018-04-22T23:22:04.706Z,24.64
2018-04-22T23:24:33.118Z,24.46
2018-04-22T23:27:01.494Z,24.42
2018-04-22T23:29:29.837Z,24.24
2018-04-22T23:31:58.222Z,24.35
2018-04-22T23:34:26.634Z,24.54
2018-04-22T23:36:55.006Z,24.34
2018-04-22T23:39:23.391Z,24.31
2018-04-22T23:41:51.773Z,24.38
2018-04-22T23:44:20.150Z,24.47
2018-04-22T23:46:48.498Z,24.33
2018-04-22T23:49:16.852Z,24.20
2018-04-22T23:51:45.649Z,24.01
2018-04-22T23:54:14.403Z,24.22
2018-04-22T23:56:42.858Z,24.06
2018-04-22T23:59:11.200Z,24.04
